Time;durP1;ratioP1;P1;durP2;ratioP2;P2;SDS_P1;SDS_P2;PMS_P1;PMS_P2;Temp;Humidity;BMP_temperature;BMP_pressure;BME280_temperature;BME280_humidity;BME280_pressure;Samples;Min_cycle;Max_cycle;Signal;HPM_P1;HPM_P2
2023/07/05 00:00:46;;;;;;;5.15;3.60;;;;;;;23.01;65.37;101050.56;4976233;28;20041;-85
2023/07/05 00:03:11;;;;;;;6.72;3.97;;;;;;;23.08;65.55;101051.63;4992879;28;20475;-85
2023/07/05 00:05:37;;;;;;;6.05;4.00;;;;;;;23.03;65.73;101051.25;4960210;28;20650;-85
2023/07/05 00:08:03;;;;;;;7.80;3.80;;;;;;;22.87;66.02;101028.09;4975945;28;20084;-86
2023/07/05 00:10:29;;;;;;;5.88;4.22;;;;;;;23.01;65.96;101050.56;4976091;28;20030;-86
2023/07/05 00:12:54;;;;;;;7.07;3.90;;;;;;;23.06;65.72;101063.31;4992379;28;20034;-86
2023/07/05 00:15:19;;;;;;;6.65;3.83;;;;;;;22.89;66.09;101041.16;4992377;28;20037;-86
2023/07/05 00:17:45;;;;;;;5.68;3.95;;;;;;;22.92;66.45;101054.06;4959986;28;20481;-86
2023/07/05 00:20:11;;;;;;;5.30;3.78;;;;;;;22.92;66.58;101054.06;4959989;28;20030;-86
2023/07/05 00:22:36;;;;;;;5.55;3.85;;;;;;;22.91;66.68;101065.59;4975533;28;20066;-87
2023/07/05 00:25:02;;;;;;;6.95;3.90;;;;;;;22.89;66.69;101057.81;4975869;28;20037;-85
2023/07/05 00:27:28;;;;;;;6.97;4.28;;;;;;;22.75;67.10;101036.31;4991150;28;20411;-86
2023/07/05 00:29:53;;;;;;;5.95;4.18;;;;;;;22.82;67.52;101061.16;4992114;28;20034;-85
2023/07/05 00:32:19;;;;;;;5.82;3.90;;;;;;;22.70;67.66;101057.84;4959462;28;20030;-86
2023/07/05 00:34:45;;;;;;;6.07;4.38;;;;;;;22.60;68.03;101057.84;4992344;28;20030;-85
2023/07/05 00:37:10;;;;;;;5.78;3.88;;;;;;;22.74;68.11;101076.84;4975353;28;20488;-85
2023/07/05 00:39:36;;;;;;;10.90;4.28;;;;;;;22.61;68.07;101070.09;4975594;28;20108;-86
2023/07/05 00:42:02;;;;;;;5.20;3.45;;;;;;;22.77;67.77;101080.03;4959499;28;20026;-86
2023/07/05 00:44:27;;;;;;;5.50;3.75;;;;;;;22.78;67.69;101065.03;4991596;28;20046;-85
2023/07/05 00:47:09;;;;;;;5.63;3.60;;;;;;;22.63;67.91;101038.31;4975501;28;20422;-85
2023/07/05 00:49:35;;;;;;;6.70;3.72;;;;;;;22.76;67.66;101051.16;4960931;28;20116;-85
2023/07/05 00:52:03;;;;;;;5.50;3.80;;;;;;;22.84;68.06;101054.78;4959038;28;20031;-85
2023/07/05 00:54:37;;;;;;;9.98;4.13;;;;;;;22.88;68.02;101065.88;4975358;28;20463;-85
2023/07/05 00:57:28;;;;;;;7.53;4.50;;;;;;;22.86;68.17;101067.81;4975820;28;20045;-86
2023/07/05 01:00:15;;;;;;;10.73;5.57;;;;;;;22.82;68.40;101061.97;4972718;28;20647;-85
2023/07/05 01:02:41;;;;;;;7.35;4.97;;;;;;;22.87;68.25;101058.94;4991213;28;20065;-85
2023/07/05 01:05:08;;;;;;;6.38;4.90;;;;;;;22.81;67.97;101044.50;4975034;28;20058;-85
2023/07/05 01:07:34;;;;;;;6.53;4.22;;;;;;;22.85;68.39;101067.00;4974954;28;20113;-86
2023/07/05 01:10:00;;;;;;;7.78;4.43;;;;;;;22.80;68.70;101053.34;4974878;28;20488;-85
2023/07/05 01:12:41;;;;;;;6.60;4.47;;;;;;;22.88;68.44;101050.88;4959036;28;20432;-86
2023/07/05 01:15:06;;;;;;;8.25;4.75;;;;;;;22.98;67.90;101063.19;4974953;28;20026;-86
2023/07/05 01:17:36;;;;;;;9.15;4.43;;;;;;;22.89;68.20;101051.69;4991045;28;20564;-86
2023/07/05 01:20:05;;;;;;;9.45;4.88;;;;;;;22.79;68.21;101035.03;4974640;28;20026;-85
2023/07/05 01:22:49;;;;;;;9.93;4.22;;;;;;;22.93;68.19;101063.66;4990570;28;20041;-86
2023/07/05 01:25:35;;;;;;;8.23;4.80;;;;;;;22.78;68.96;101038.66;4975196;28;20065;-85
2023/07/05 01:28:11;;;;;;;6.88;4.82;;;;;;;22.84;68.68;101059.22;4975100;28;20030;-86
2023/07/05 01:30:55;;;;;;;6.88;4.80;;;;;;;22.92;68.51;101056.72;4991206;28;20480;-85
2023/07/05 01:33:45;;;;;;;7.10;4.95;;;;;;;22.89;68.73;101049.06;4991826;28;20511;-86
2023/07/05 01:36:11;;;;;;;8.73;4.93;;;;;;;22.65;68.91;101011.78;4968289;28;21615;-85
2023/07/05 01:38:36;;;;;;;6.90;4.43;;;;;;;22.83;68.79;101031.16;4991092;28;20026;-86
2023/07/05 01:41:04;;;;;;;8.48;5.40;;;;;;;22.88;68.72;101037.69;4990766;28;20033;-86
2023/07/05 01:43:30;;;;;;;7.15;4.78;;;;;;;22.90;68.94;101034.88;4958538;28;20027;-85
2023/07/05 01:46:21;;;;;;;8.32;4.97;;;;;;;22.94;68.72;101027.53;4974439;28;20045;-86
2023/07/05 01:49:00;;;;;;;6.38;4.80;;;;;;;23.04;68.54;101033.59;4990734;28;20026;-85
2023/07/05 01:51:39;;;;;;;6.28;4.53;;;;;;;23.04;68.49;101033.59;4975908;28;20492;-85
2023/07/05 01:54:18;;;;;;;8.88;5.35;;;;;;;23.07;68.68;101044.69;4975165;28;20034;-85
2023/07/05 01:57:11;;;;;;;9.57;5.68;;;;;;;22.99;68.99;101041.09;4974045;28;20026;-85
2023/07/05 01:59:50;;;;;;;8.93;5.00;;;;;;;22.96;69.06;101042.25;4990497;28;20125;-85
2023/07/05 02:02:16;;;;;;;7.68;4.93;;;;;;;23.04;69.01;101046.78;4958569;28;20034;-86
2023/07/05 02:04:42;;;;;;;8.95;5.07;;;;;;;23.05;68.86;101041.38;4990378;28;20112;-85
2023/07/05 02:07:07;;;;;;;7.53;5.15;;;;;;;23.01;69.00;101040.00;4958031;28;20140;-86
2023/07/05 02:09:37;;;;;;;6.53;4.75;;;;;;;23.08;68.82;101038.44;4974223;28;20542;-85
2023/07/05 02:12:04;;;;;;;7.18;5.18;;;;;;;23.12;68.94;101045.09;4974258;28;20037;-85
2023/07/05 02:14:30;;;;;;;7.82;4.68;;;;;;;23.07;68.72;101033.31;4974568;28;20026;-85
2023/07/05 02:16:55;;;;;;;8.32;5.05;;;;;;;23.29;68.62;101051.38;4990515;28;20084;-86
2023/07/05 02:19:21;;;;;;;8.27;4.78;;;;;;;23.22;68.49;101046.84;4989673;28;20182;-86
2023/07/05 02:21:46;;;;;;;7.35;4.60;;;;;;;23.14;68.80;101051.06;4989886;28;20029;-85
2023/07/05 02:24:11;;;;;;;6.30;4.40;;;;;;;23.10;68.92;101043.56;4990194;28;20022;-86
2023/07/05 02:26:37;;;;;;;8.55;5.40;;;;;;;23.10;69.08;101040.91;4990137;28;20048;-85
2023/07/05 02:29:02;;;;;;;7.30;5.15;;;;;;;23.12;69.29;101037.19;4974299;28;20061;-87
2023/07/05 02:31:29;;;;;;;6.43;4.45;;;;;;;23.23;69.08;101043.25;4957817;28;20023;-85
2023/07/05 02:33:54;;;;;;;7.00;4.63;;;;;;;23.12;69.49;101037.19;4990171;28;20026;-85
2023/07/05 02:36:20;;;;;;;8.60;5.03;;;;;;;23.10;70.07;101043.56;4990135;28;20488;-85
2023/07/05 02:38:45;;;;;;;8.10;4.53;;;;;;;23.07;69.77;101044.69;4957800;28;20030;-86
2023/07/05 02:41:11;;;;;;;9.70;5.05;;;;;;;23.01;69.92;101028.59;4989760;28;20480;-86
2023/07/05 02:43:36;;;;;;;6.25;4.57;;;;;;;23.05;70.08;101045.81;4990358;28;20420;-86
2023/07/05 02:46:01;;;;;;;7.57;5.10;;;;;;;23.02;69.59;101030.28;4989763;28;20037;-86
2023/07/05 02:48:27;;;;;;;7.10;4.95;;;;;;;23.01;69.58;101018.91;4973688;28;20030;-85
2023/07/05 02:50:52;;;;;;;6.22;4.18;;;;;;;23.11;69.84;101026.78;4992346;28;20041;-86
2023/07/05 02:53:18;;;;;;;6.25;4.65;;;;;;;23.12;69.82;101031.91;4993992;28;20030;-86
2023/07/05 02:55:44;;;;;;;8.82;4.97;;;;;;;23.07;70.10;101030.66;4977527;28;20030;-88
2023/07/05 02:58:09;;;;;;;9.00;4.90;;;;;;;23.11;69.27;101032.88;4977707;28;20092;-87
2023/07/05 03:00:35;;;;;;;6.53;4.40;;;;;;;23.45;67.57;101025.19;4977417;28;20026;-86
2023/07/05 03:03:00;;;;;;;7.40;4.57;;;;;;;23.32;68.71;101023.88;4961209;28;20480;-87
2023/07/05 03:05:25;;;;;;;7.03;5.00;;;;;;;23.14;69.54;101027.31;4993713;28;20053;-87
2023/07/05 03:07:52;;;;;;;6.32;4.85;;;;;;;23.23;69.69;101032.69;4961088;28;20085;-87
2023/07/05 03:10:17;;;;;;;16.80;4.82;;;;;;;23.23;69.58;101028.22;4977518;28;20037;-87
2023/07/05 03:12:42;;;;;;;9.05;4.65;;;;;;;23.21;69.47;101014.34;4993785;28;20034;-87
2023/07/05 03:15:08;;;;;;;9.82;5.13;;;;;;;23.23;69.38;101032.69;4977154;28;20030;-87
2023/07/05 03:17:34;;;;;;;7.05;4.97;;;;;;;23.17;69.99;101050.75;4976903;28;20018;-86
2023/07/05 03:19:59;;;;;;;8.10;5.18;;;;;;;23.05;69.74;101027.34;4978098;28;20037;-86
2023/07/05 03:22:28;;;;;;;7.22;5.13;;;;;;;23.10;70.67;101039.09;4976957;28;20488;-87
2023/07/05 03:24:54;;;;;;;10.25;4.57;;;;;;;23.02;70.62;101041.66;4977185;28;20596;-86
2023/07/05 03:27:19;;;;;;;9.50;5.07;;;;;;;22.98;70.86;101024.44;4976832;28;20034;-88
2023/07/05 03:29:45;;;;;;;8.55;4.93;;;;;;;22.87;71.21;101032.56;4993244;28;20066;-87
2023/07/05 03:32:10;;;;;;;8.50;5.10;;;;;;;22.86;71.70;101026.44;4992656;28;20411;-86
2023/07/05 03:34:35;;;;;;;9.55;5.35;;;;;;;22.94;71.82;101046.84;4949593;28;20432;-87
2023/07/05 03:37:01;;;;;;;7.10;4.82;;;;;;;22.84;71.03;101003.84;4992991;28;20030;-87
2023/07/05 03:39:26;;;;;;;15.27;5.53;;;;;;;23.21;70.14;101039.91;4976837;28;20034;-86
2023/07/05 03:41:52;;;;;;;7.97;5.35;;;;;;;23.31;70.55;101030.97;4976355;28;20037;-86
2023/07/05 03:44:21;;;;;;;13.70;5.10;;;;;;;23.27;69.70;101032.22;4976520;28;20041;-86
2023/07/05 03:46:47;;;;;;;8.50;5.47;;;;;;;23.31;70.08;101040.69;4992769;28;20140;-87
2023/07/05 03:49:12;;;;;;;12.18;5.10;;;;;;;23.37;69.21;101026.88;4992746;28;20492;-85
2023/07/05 03:51:38;;;;;;;8.57;5.18;;;;;;;23.64;68.00;101028.69;4976459;28;20025;-86
2023/07/05 03:54:03;;;;;;;6.88;4.93;;;;;;;23.64;68.19;101040.09;4993019;28;20046;-86
2023/07/05 03:56:29;;;;;;;7.32;5.40;;;;;;;23.37;68.66;101014.53;4976065;28;20039;-86
2023/07/05 03:58:54;;;;;;;10.80;4.50;;;;;;;23.45;69.19;101040.19;5008927;28;20026;-86
2023/07/05 04:01:22;;;;;;;7.18;5.00;;;;;;;23.41;68.75;101021.19;4974668;28;20042;-87
2023/07/05 04:03:49;;;;;;;7.20;5.13;;;;;;;23.52;68.67;101038.63;4976203;28;20025;-86
2023/07/05 04:06:15;;;;;;;7.65;5.20;;;;;;;23.38;69.23;101028.56;4976032;28;20141;-86
2023/07/05 04:08:40;;;;;;;6.78;5.10;;;;;;;23.51;69.01;101047.53;4990945;28;20029;-87
2023/07/05 04:11:06;;;;;;;8.52;5.82;;;;;;;23.52;69.33;101043.91;4992202;28;20515;-88
2023/07/05 04:13:31;;;;;;;8.93;6.22;;;;;;;23.55;69.12;101054.16;4974531;28;20058;-90
2023/07/05 04:16:10;;;;;;;8.30;5.20;;;;;;;23.60;68.59;101046.66;4976618;28;20026;-85
2023/07/05 04:18:35;;;;;;;9.43;5.22;;;;;;;23.48;69.17;101016.13;4999214;28;20034;-84
2023/07/05 04:21:01;;;;;;;8.02;5.10;;;;;;;23.98;67.97;101056.09;5008379;28;20042;-87
2023/07/05 04:23:26;;;;;;;8.85;5.50;;;;;;;23.94;67.45;101053.91;4984983;28;20030;-91
2023/07/05 04:26:09;;;;;;;15.30;5.43;;;;;;;23.92;68.03;101063.81;4997193;28;20033;-88
2023/07/05 04:28:35;;;;;;;8.20;5.50;;;;;;;23.87;67.92;101051.03;4989344;28;20540;-84
2023/07/05 04:31:00;;;;;;;8.02;5.50;;;;;;;24.12;66.85;101062.69;4973927;28;20027;-90
2023/07/05 04:33:26;;;;;;;8.48;5.30;;;;;;;24.14;66.45;101071.28;4976943;28;20030;-90
2023/07/05 04:35:54;;;;;;;10.27;5.82;;;;;;;24.00;66.78;101064.72;4984022;28;20168;-90
2023/07/05 04:38:20;;;;;;;8.05;5.32;;;;;;;24.18;67.11;101072.63;4975477;28;20085;-93
2023/07/05 04:40:49;;;;;;;7.88;5.13;;;;;;;24.10;66.37;101038.22;4978336;28;20026;-93
2023/07/05 04:43:14;;;;;;;8.73;5.60;;;;;;;24.33;66.24;101066.84;4989150;28;20043;-93
2023/07/05 04:45:40;;;;;;;13.95;5.90;;;;;;;24.52;65.59;101064.84;4969589;28;20604;-91
2023/07/05 04:48:05;;;;;;;9.30;5.28;;;;;;;24.95;64.23;101070.19;4992808;28;20135;-87
2023/07/05 04:50:31;;;;;;;12.27;5.43;;;;;;;24.99;63.53;101063.63;4976034;28;20030;-90
2023/07/05 04:52:56;;;;;;;16.20;6.80;;;;;;;24.89;64.11;101061.91;4960192;28;20030;-88
2023/07/05 04:55:22;;;;;;;13.73;7.32;;;;;;;24.93;64.66;101072.19;4991641;28;20030;-90
2023/07/05 04:57:47;;;;;;;14.20;6.60;;;;;;;24.67;64.84;101043.91;4990877;28;20032;-85
2023/07/05 05:00:13;;;;;;;10.27;6.43;;;;;;;24.66;63.75;101055.47;5007110;28;20511;-84
2023/07/05 05:02:39;;;;;;;11.38;6.40;;;;;;;24.76;65.41;101082.66;5007693;28;20570;-85
2023/07/05 05:05:05;;;;;;;11.57;6.50;;;;;;;24.82;64.54;101058.25;4977224;28;20034;-92
2023/07/05 05:07:31;;;;;;;7.43;5.30;;;;;;;24.73;63.82;101087.44;4975668;28;20137;-87
2023/07/05 05:09:57;;;;;;;8.82;5.80;;;;;;;24.69;63.74;101081.66;5011220;28;20042;-87
2023/07/05 05:12:22;;;;;;;9.10;6.07;;;;;;;24.70;64.94;101072.72;5003309;28;20030;-87
2023/07/05 05:14:48;;;;;;;9.50;6.20;;;;;;;25.00;65.19;101073.22;4992062;28;20030;-83
2023/07/05 05:17:13;;;;;;;7.88;5.75;;;;;;;24.97;63.70;101077.00;4990865;28;20551;-85
2023/07/05 05:19:39;;;;;;;9.45;6.40;;;;;;;24.82;64.29;101065.34;4991308;28;20034;-86
2023/07/05 05:22:04;;;;;;;9.43;6.40;;;;;;;24.70;65.85;101059.50;4987223;28;20118;-84
2023/07/05 05:24:29;;;;;;;15.80;6.07;;;;;;;24.74;62.60;101044.97;5002684;28;20018;-84
2023/07/05 05:26:55;;;;;;;7.97;5.80;;;;;;;25.01;63.52;101074.88;4976811;28;20042;-87
2023/07/05 05:29:20;;;;;;;9.00;5.57;;;;;;;25.02;63.18;101060.69;4988787;28;20039;-91
2023/07/05 05:31:48;;;;;;;11.68;6.25;;;;;;;25.03;63.68;101076.41;4973386;28;20027;-94
2023/07/05 05:34:13;;;;;;;9.77;5.82;;;;;;;25.06;62.75;101070.78;4973807;28;20071;-88
2023/07/05 05:36:38;;;;;;;9.55;6.10;;;;;;;25.01;63.23;101074.88;5026910;28;20077;-88
2023/07/05 05:39:04;;;;;;;8.48;5.88;;;;;;;25.01;63.18;101074.88;5010446;28;20033;-93
2023/07/05 05:41:29;;;;;;;8.93;6.13;;;;;;;25.13;64.62;101084.22;5003115;28;20030;-94
2023/07/05 05:43:55;;;;;;;7.65;5.72;;;;;;;25.32;64.00;101091.09;4995116;28;20033;-92
2023/07/05 05:46:20;;;;;;;9.20;6.60;;;;;;;25.31;62.02;101092.91;4975554;28;20042;-91
2023/07/05 05:48:46;;;;;;;7.55;5.60;;;;;;;25.25;63.79;101098.00;4988952;28;20486;-88
2023/07/05 05:51:11;;;;;;;8.60;5.47;;;;;;;25.28;63.01;101093.25;4983799;28;20038;-86
2023/07/05 05:53:37;;;;;;;9.90;6.07;;;;;;;25.18;62.11;101095.19;4978033;28;20098;-86
2023/07/05 05:56:02;;;;;;;12.20;6.50;;;;;;;25.21;63.37;101086.91;4990147;28;20518;-89
2023/07/05 05:58:30;;;;;;;8.95;6.30;;;;;;;25.33;63.09;101098.88;4958714;28;20113;-94
2023/07/05 06:01:00;;;;;;;10.52;6.03;;;;;;;25.32;62.76;101091.94;4992030;28;20033;-93
2023/07/05 06:03:25;;;;;;;12.43;6.20;;;;;;;25.40;63.35;101086.66;4971081;28;20094;-87
2023/07/05 06:05:51;;;;;;;8.65;5.93;;;;;;;25.33;63.31;101087.44;4957539;28;20500;-87
2023/07/05 06:08:16;;;;;;;9.75;6.80;;;;;;;25.38;63.63;101087.81;4971952;28;20412;-93
2023/07/05 06:10:42;;;;;;;10.05;6.45;;;;;;;25.47;62.12;101094.81;4957263;28;20089;-89
2023/07/05 06:13:07;;;;;;;9.60;6.43;;;;;;;25.39;62.78;101092.13;4958361;28;20026;-91
2023/07/05 06:15:34;;;;;;;9.20;6.88;;;;;;;25.38;62.43;101088.66;4978381;28;20093;-90
2023/07/05 06:17:59;;;;;;;9.68;6.20;;;;;;;25.32;62.65;101089.28;4991889;28;20104;-90
2023/07/05 06:20:26;;;;;;;9.50;6.65;;;;;;;25.34;63.54;101076.69;4974885;28;20456;-85
2023/07/05 06:22:52;;;;;;;8.52;6.70;;;;;;;25.43;63.16;101090.81;4983416;28;20061;-92
2023/07/05 06:25:17;;;;;;;9.45;6.55;;;;;;;25.41;62.31;101072.44;4976757;28;20038;-87
2023/07/05 06:27:42;;;;;;;8.40;5.90;;;;;;;25.58;63.13;101091.84;5026015;28;20026;-87
2023/07/05 06:30:08;;;;;;;8.82;6.68;;;;;;;25.54;62.36;101089.69;5026594;28;20092;-93
2023/07/05 06:32:35;;;;;;;9.27;6.75;;;;;;;25.49;62.25;101068.16;4995083;28;20030;-88
2023/07/05 06:35:00;;;;;;;15.38;6.65;;;;;;;25.52;62.11;101081.06;4971798;28;20074;-87
2023/07/05 06:37:25;;;;;;;11.30;7.15;;;;;;;25.53;62.07;101078.25;5006330;28;20038;-85
2023/07/05 06:39:51;;;;;;;11.90;7.15;;;;;;;25.57;62.29;101089.38;5006464;28;20046;-88
2023/07/05 06:42:16;;;;;;;9.52;6.82;;;;;;;25.55;62.35;101078.09;4973947;28;20081;-90
2023/07/05 06:44:42;;;;;;;8.68;6.65;;;;;;;25.62;64.68;101095.00;4988020;28;20116;-91
2023/07/05 06:47:07;;;;;;;8.45;6.30;;;;;;;25.51;62.76;101082.88;4993437;28;20037;-86
2023/07/05 06:49:33;;;;;;;7.68;6.05;;;;;;;25.70;61.45;101077.34;4998453;28;20514;-87
2023/07/05 06:51:58;;;;;;;9.27;7.07;;;;;;;25.55;61.51;101046.28;4989914;28;20048;-85
2023/07/05 06:54:24;;;;;;;8.68;6.45;;;;;;;25.99;62.45;101073.41;4992177;28;20030;-90
2023/07/05 06:56:49;;;;;;;9.88;6.93;;;;;;;26.06;60.37;101069.13;5005683;28;20093;-84
2023/07/05 06:59:15;;;;;;;12.43;7.25;;;;;;;26.07;59.98;101057.50;4981130;28;20038;-87
2023/07/05 07:01:40;;;;;;;9.02;6.90;;;;;;;26.29;59.51;101069.28;4993414;28;20569;-93
2023/07/05 07:04:06;;;;;;;9.48;6.63;;;;;;;26.54;57.67;101072.75;4992972;28;20466;-84
2023/07/05 07:06:32;;;;;;;7.50;5.97;;;;;;;26.66;56.69;101067.94;5009652;28;20058;-92
2023/07/05 07:08:58;;;;;;;9.73;6.28;;;;;;;26.74;57.26;101075.84;5011667;28;20373;-88
2023/07/05 07:11:23;;;;;;;9.30;6.47;;;;;;;26.71;56.53;101050.50;5010953;28;20033;-95
2023/07/05 07:13:49;;;;;;;11.05;7.20;;;;;;;26.88;56.53;101067.22;4997613;28;20520;-87
2023/07/05 07:16:15;;;;;;;10.43;7.15;;;;;;;26.84;58.46;101064.09;4986492;28;20030;-91
2023/07/05 07:18:44;;;;;;;7.93;5.75;;;;;;;26.85;56.31;101063.09;4957541;28;20038;-90
2023/07/05 07:21:10;;;;;;;8.50;6.00;;;;;;;26.87;57.01;101074.34;4974413;28;20026;-92
2023/07/05 07:23:36;;;;;;;10.48;6.82;;;;;;;26.73;56.15;101053.81;4972980;28;20037;-89
2023/07/05 07:26:08;;;;;;;14.60;6.97;;;;;;;26.92;56.86;101081.78;5009761;28;20133;-92
2023/07/05 07:28:36;;;;;;;9.57;7.25;;;;;;;26.84;56.68;101082.66;5007530;28;20027;-94
2023/07/05 07:31:33;;;;;;;9.77;6.53;;;;;;;26.79;58.29;101073.53;4975762;28;20037;-92
2023/07/05 07:34:02;;;;;;;10.57;7.82;;;;;;;26.86;58.52;101080.66;4993317;28;20030;-89
2023/07/05 07:36:30;;;;;;;8.88;6.75;;;;;;;26.92;57.33;101068.53;4973749;28;20050;-87
2023/07/05 07:38:55;;;;;;;11.88;7.00;;;;;;;26.93;56.65;101072.81;4979706;28;20025;-91
2023/07/05 07:41:23;;;;;;;9.15;7.10;;;;;;;26.90;58.03;101069.69;5014347;28;20604;-89
2023/07/05 07:43:52;;;;;;;10.27;6.82;;;;;;;26.97;57.60;101081.28;5010975;28;20045;-92
2023/07/05 07:46:20;;;;;;;12.50;7.40;;;;;;;27.01;57.85;101078.13;4977201;28;20022;-94
2023/07/05 07:48:50;;;;;;;12.70;7.57;;;;;;;26.97;58.16;101075.97;4982793;28;20034;-93
2023/07/05 07:51:18;;;;;;;10.40;6.95;;;;;;;27.14;57.41;101072.31;4967338;28;20034;-94
2023/07/05 07:53:44;;;;;;;10.93;7.15;;;;;;;26.97;58.09;101046.78;5146961;23;20563;-93
2023/07/05 07:56:14;;;;;;;10.55;7.38;;;;;;;27.23;58.74;101079.22;4940575;28;20027;-90
2023/07/05 07:58:40;;;;;;;9.57;7.32;;;;;;;27.18;56.48;101068.31;4924571;28;20055;-91
2023/07/05 08:01:38;;;;;;;10.23;7.00;;;;;;;27.24;57.00;101082.72;4959234;28;20035;-91
2023/07/05 08:04:04;;;;;;;9.02;6.80;;;;;;;27.25;57.32;101077.25;4949268;28;20038;-95
2023/07/05 08:06:30;;;;;;;10.20;7.25;;;;;;;27.31;57.78;101083.66;4959280;28;20063;-86
2023/07/05 08:08:56;;;;;;;10.27;7.28;;;;;;;27.29;58.26;101075.06;4972822;28;20077;-93
2023/07/05 08:11:21;;;;;;;11.00;6.68;;;;;;;27.30;56.88;101058.94;4957424;28;20397;-87
2023/07/05 08:13:48;;;;;;;9.98;7.00;;;;;;;27.28;55.66;101052.16;4956880;28;20042;-86
2023/07/05 08:16:14;;;;;;;13.38;7.53;;;;;;;27.37;56.22;101077.69;4955161;29;20027;-93
2023/07/05 08:18:40;;;;;;;11.48;7.47;;;;;;;27.30;56.14;101066.09;4938678;28;20042;-93
2023/07/05 08:21:05;;;;;;;11.30;6.78;;;;;;;27.40;57.20;101079.97;4939467;29;20038;-94
2023/07/05 08:23:31;;;;;;;8.70;6.47;;;;;;;27.58;56.06;101085.03;4950798;28;20031;-91
2023/07/05 08:25:56;;;;;;;13.00;7.20;;;;;;;27.65;55.07;101076.22;4946578;28;20038;-94
2023/07/05 08:28:25;;;;;;;8.40;6.43;;;;;;;27.66;54.65;101072.56;4984080;28;20031;-91
2023/07/05 08:30:58;;;;;;;9.38;7.30;;;;;;;27.75;55.99;101076.00;4952716;29;20027;-89
2023/07/05 08:33:24;;;;;;;8.73;6.50;;;;;;;27.72;55.36;101074.50;4970993;28;20037;-91
2023/07/05 08:35:54;;;;;;;9.38;7.47;;;;;;;27.76;55.70;101069.69;4918408;28;20071;-90
2023/07/05 08:38:21;;;;;;;9.90;7.80;;;;;;;27.87;56.02;101077.25;4963336;28;20049;-92
2023/07/05 08:40:49;;;;;;;9.65;7.45;;;;;;;27.86;55.27;101070.28;4972326;28;20089;-91
2023/07/05 08:43:36;;;;;;;14.32;7.03;;;;;;;27.91;56.49;101069.72;4958723;28;20058;-89
2023/07/05 08:46:04;;;;;;;9.18;7.00;;;;;;;28.07;55.89;101068.78;4971547;28;20081;-92
2023/07/05 08:48:30;;;;;;;9.40;6.82;;;;;;;28.03;55.04;101065.66;4958745;28;20038;-93
2023/07/05 08:50:56;;;;;;;9.65;6.85;;;;;;;28.10;54.74;101079.06;4956072;28;20038;-94
2023/07/05 08:53:23;;;;;;;11.85;7.72;;;;;;;28.15;55.99;101082.84;4956557;28;20051;-92
2023/07/05 08:55:58;;;;;;;10.48;7.22;;;;;;;28.19;55.40;101078.00;4974052;28;20553;-87
2023/07/05 08:58:45;;;;;;;11.00;6.55;;;;;;;28.24;53.86;101073.81;4958043;28;20027;-90
2023/07/05 09:01:24;;;;;;;8.40;6.53;;;;;;;28.41;53.29;101087.78;4939846;29;20071;-89
2023/07/05 09:03:49;;;;;;;9.27;6.72;;;;;;;28.55;54.13;101070.22;4936722;28;20093;-92
2023/07/05 09:06:16;;;;;;;9.10;6.85;;;;;;;28.78;53.25;101072.81;4973014;28;20054;-93
2023/07/05 09:09:04;;;;;;;9.70;6.43;;;;;;;29.02;53.27;101069.09;4974797;28;20022;-88
2023/07/05 09:12:05;;;;;;;12.07;6.82;;;;;;;29.33;51.76;101066.19;4973794;28;20054;-86
2023/07/05 09:15:14;;;;;;;9.35;6.70;;;;;;;29.52;51.57;101057.63;4930013;29;20056;-90
2023/07/05 09:18:19;;;;;;;8.85;6.20;;;;;;;29.77;51.08;101059.91;4939667;28;20559;-87
2023/07/05 09:21:09;;;;;;;7.93;6.43;;;;;;;29.96;49.99;101044.09;4967106;28;20038;-93
2023/07/05 09:23:42;;;;;;;7.88;5.97;;;;;;;30.22;49.01;101050.72;4967933;28;20038;-89
2023/07/05 09:26:37;;;;;;;9.02;6.68;;;;;;;30.21;49.33;101035.72;4957314;28;20452;-92
2023/07/05 09:29:18;;;;;;;8.05;6.35;;;;;;;30.26;50.73;101041.28;4959020;28;20058;-89
2023/07/05 09:31:43;;;;;;;8.95;6.70;;;;;;;30.29;49.95;101029.44;4971884;28;20085;-92
2023/07/05 09:34:23;;;;;;;8.98;6.45;;;;;;;30.34;48.88;101017.13;4974626;28;20035;-93
2023/07/05 09:36:48;;;;;;;8.70;6.35;;;;;;;30.36;47.77;101019.59;4947636;28;20061;-92
2023/07/05 09:39:35;;;;;;;9.15;5.93;;;;;;;30.43;47.74;101031.97;4959624;28;20031;-94
2023/07/05 09:42:02;;;;;;;8.15;6.03;;;;;;;30.54;49.76;101019.94;4954745;28;20046;-93
2023/07/05 09:44:29;;;;;;;7.82;6.32;;;;;;;30.80;47.60;101021.97;4953471;28;20034;-92
2023/07/05 09:46:54;;;;;;;11.95;8.13;;;;;;;30.83;46.76;101026.91;4956278;28;20548;-94
2023/07/05 09:49:20;;;;;;;8.10;6.40;;;;;;;30.74;48.20;101017.41;4958733;28;20035;-93
2023/07/05 09:51:46;;;;;;;8.82;6.57;;;;;;;30.82;47.24;101019.91;4943559;28;20030;-94
2023/07/05 09:54:19;;;;;;;10.45;7.03;;;;;;;30.69;47.29;101012.66;4954228;28;20054;-94
2023/07/05 09:56:55;;;;;;;11.00;6.47;;;;;;;31.00;46.21;101017.53;4955933;28;20047;-93
2023/07/05 09:59:20;;;;;;;9.20;5.57;;;;;;;31.15;44.86;100992.50;4948584;28;20023;-91
2023/07/05 10:01:49;;;;;;;7.35;5.97;;;;;;;31.05;45.21;101016.91;4967181;28;20031;-93
2023/07/05 10:04:15;;;;;;;7.57;6.25;;;;;;;31.05;45.76;101006.22;4955558;28;20035;-91
2023/07/05 10:06:42;;;;;;;7.70;5.78;;;;;;;31.22;46.80;101017.44;4952838;29;20043;-94
2023/07/05 10:09:16;;;;;;;8.15;6.43;;;;;;;31.42;45.04;100988.06;4933093;28;20065;-92
2023/07/05 10:11:44;;;;;;;8.70;6.25;;;;;;;31.66;44.63;101012.41;4973376;28;20045;-94
2023/07/05 10:14:12;;;;;;;10.13;6.45;;;;;;;31.78;44.97;101003.78;4921176;29;20027;-91
2023/07/05 10:16:52;;;;;;;8.10;6.20;;;;;;;31.89;43.93;101013.88;4951110;29;20035;-90
2023/07/05 10:19:31;;;;;;;9.38;6.68;;;;;;;31.91;44.42;101007.28;4944928;28;20481;-93
2023/07/05 10:22:06;;;;;;;9.95;5.85;;;;;;;31.74;45.17;101014.03;4964855;28;20068;-89
2023/07/05 10:24:45;;;;;;;7.85;6.18;;;;;;;31.68;45.02;101007.66;4935726;29;20032;-90
2023/07/05 10:27:33;;;;;;;7.93;5.95;;;;;;;31.69;44.79;101016.50;4935626;29;20034;-88
2023/07/05 10:30:13;;;;;;;7.28;5.93;;;;;;;31.67;44.30;101007.88;4962362;28;20035;-89
2023/07/05 10:32:39;;;;;;;10.80;6.30;;;;;;;31.59;45.23;101006.22;4935356;29;20024;-86
2023/07/05 10:35:15;;;;;;;8.15;6.30;;;;;;;31.44;45.22;101013.56;4925227;28;20039;-89
2023/07/05 10:37:41;;;;;;;8.85;6.45;;;;;;;31.35;45.51;101002.25;4936963;29;20042;-92
2023/07/05 10:40:09;;;;;;;12.95;8.82;;;;;;;31.24;45.47;100986.78;4935645;29;20031;-89
2023/07/05 10:42:49;;;;;;;10.25;7.68;;;;;;;31.33;45.21;101000.81;4922584;29;20417;-90
2023/07/05 10:45:16;;;;;;;9.35;6.05;;;;;;;31.42;45.86;101001.44;4951815;29;20027;-95
2023/07/05 10:47:42;;;;;;;6.97;5.57;;;;;;;31.36;44.55;101005.72;4922096;29;20042;-93
2023/07/05 10:50:09;;;;;;;8.00;5.88;;;;;;;31.36;45.50;101005.72;4919861;29;20417;-91
2023/07/05 10:52:36;;;;;;;7.90;6.38;;;;;;;31.34;44.42;100997.09;4935104;29;20027;-88
2023/07/05 10:55:16;;;;;;;10.52;5.90;;;;;;;31.27;44.37;100985.59;4935737;29;20052;-89
2023/07/05 10:57:46;;;;;;;8.57;6.40;;;;;;;31.49;44.64;100989.75;4946141;28;20463;-94
2023/07/05 11:00:21;;;;;;;6.95;5.70;;;;;;;31.50;43.17;100980.69;4973646;28;20057;-89
2023/07/05 11:02:58;;;;;;;9.30;5.90;;;;;;;31.66;43.28;100988.31;4955619;28;20031;-88
2023/07/05 11:05:45;;;;;;;6.07;5.00;;;;;;;31.92;42.58;100989.38;4970464;28;20440;-89
2023/07/05 11:08:44;;;;;;;7.53;5.78;;;;;;;31.91;42.57;100979.72;4955953;28;20038;-89
2023/07/05 11:11:19;;;;;;;7.70;5.47;;;;;;;32.00;42.29;100961.59;4964779;28;20093;-90
2023/07/05 11:13:45;;;;;;;11.63;5.45;;;;;;;32.20;42.11;100971.22;4939880;28;20089;-89
2023/07/05 11:16:16;;;;;;;8.38;5.63;;;;;;;32.12;42.14;100952.72;4956238;28;21406;-90
2023/07/05 11:18:41;;;;;;;8.27;6.15;;;;;;;32.10;42.38;100949.44;4953119;28;20042;-86
2023/07/05 11:21:08;;;;;;;7.38;5.82;;;;;;;32.07;41.87;100962.41;4958022;28;20026;-85
2023/07/05 11:23:42;;;;;;;8.05;5.30;;;;;;;32.01;42.26;100957.88;4960380;28;20073;-86
2023/07/05 11:26:08;;;;;;;12.00;6.72;;;;;;;31.92;44.11;100958.09;4945046;29;20046;-88
2023/07/05 11:28:36;;;;;;;14.63;7.85;;;;;;;31.93;44.01;100954.38;4967877;28;20030;-88
2023/07/05 11:31:03;;;;;;;8.20;6.18;;;;;;;31.88;42.98;100948.03;4973160;28;20038;-87
2023/07/05 11:33:28;;;;;;;10.10;5.78;;;;;;;31.77;43.71;100949.47;4971921;28;20023;-91